sensor_id;sensor_type;location;lat;lon;timestamp;temperature;humidity
77839;SHT31;67034;43.226;27.932;2023-06-14T00:01:54;18.72;69.35
77839;SHT31;67034;43.226;27.932;2023-06-14T00:04:21;18.64;69.60
77839;SHT31;67034;43.226;27.932;2023-06-14T00:06:48;18.64;69.63
77839;SHT31;67034;43.226;27.932;2023-06-14T00:09:16;18.65;69.64
77839;SHT31;67034;43.226;27.932;2023-06-14T00:11:43;18.72;69.48
77839;SHT31;67034;43.226;27.932;2023-06-14T00:14:09;18.77;69.23
77839;SHT31;67034;43.226;27.932;2023-06-14T00:16:35;18.67;69.40
77839;SHT31;67034;43.226;27.932;2023-06-14T00:19:02;18.53;69.76
77839;SHT31;67034;43.226;27.932;2023-06-14T00:21:31;18.48;69.94
77839;SHT31;67034;43.226;27.932;2023-06-14T00:23:59;18.51;70.02
77839;SHT31;67034;43.226;27.932;2023-06-14T00:26:25;18.64;69.72
77839;SHT31;67034;43.226;27.932;2023-06-14T00:28:51;18.56;69.89
77839;SHT31;67034;43.226;27.932;2023-06-14T00:31:17;18.47;70.12
77839;SHT31;67034;43.226;27.932;2023-06-14T00:33:43;18.47;70.14
77839;SHT31;67034;43.226;27.932;2023-06-14T00:36:08;18.48;70.11
77839;SHT31;67034;43.226;27.932;2023-06-14T00:38:34;18.57;69.86
77839;SHT31;67034;43.226;27.932;2023-06-14T00:41:01;18.58;69.77
77839;SHT31;67034;43.226;27.932;2023-06-14T00:43:27;18.63;69.83
77839;SHT31;67034;43.226;27.932;2023-06-14T00:45:53;18.75;69.65
77839;SHT31;67034;43.226;27.932;2023-06-14T00:48:19;18.88;69.32
77839;SHT31;67034;43.226;27.932;2023-06-14T00:50:45;19.09;68.74
77839;SHT31;67034;43.226;27.932;2023-06-14T00:53:11;19.18;68.41
77839;SHT31;67034;43.226;27.932;2023-06-14T00:55:37;19.26;68.01
77839;SHT31;67034;43.226;27.932;2023-06-14T00:58:05;19.36;67.78
77839;SHT31;67034;43.226;27.932;2023-06-14T01:00:31;19.52;67.58
77839;SHT31;67034;43.226;27.932;2023-06-14T01:02:57;19.66;66.83
77839;SHT31;67034;43.226;27.932;2023-06-14T01:05:22;19.37;67.26
77839;SHT31;67034;43.226;27.932;2023-06-14T01:08:04;19.40;67.37
77839;SHT31;67034;43.226;27.932;2023-06-14T01:10:36;19.49;67.09
77839;SHT31;67034;43.226;27.932;2023-06-14T01:13:11;19.50;66.96
77839;SHT31;67034;43.226;27.932;2023-06-14T01:15:38;19.66;66.68
77839;SHT31;67034;43.226;27.932;2023-06-14T01:18:05;19.42;67.06
77839;SHT31;67034;43.226;27.932;2023-06-14T01:20:32;19.30;67.43
77839;SHT31;67034;43.226;27.932;2023-06-14T01:22:59;19.22;67.61
77839;SHT31;67034;43.226;27.932;2023-06-14T01:25:25;19.15;67.88
77839;SHT31;67034;43.226;27.932;2023-06-14T01:27:55;19.22;67.66
77839;SHT31;67034;43.226;27.932;2023-06-14T01:30:22;18.99;68.07
77839;SHT31;67034;43.226;27.932;2023-06-14T01:32:49;18.83;68.45
77839;SHT31;67034;43.226;27.932;2023-06-14T01:35:16;18.61;69.06
77839;SHT31;67034;43.226;27.932;2023-06-14T01:37:42;18.68;69.18
77839;SHT31;67034;43.226;27.932;2023-06-14T01:40:10;18.98;68.56
77839;SHT31;67034;43.226;27.932;2023-06-14T01:42:38;18.75;68.87
77839;SHT31;67034;43.226;27.932;2023-06-14T01:45:06;18.51;69.50
77839;SHT31;67034;43.226;27.932;2023-06-14T01:47:32;18.43;69.83
77839;SHT31;67034;43.226;27.932;2023-06-14T01:49:59;18.44;69.83
77839;SHT31;67034;43.226;27.932;2023-06-14T01:52:25;18.69;69.31
77839;SHT31;67034;43.226;27.932;2023-06-14T01:54:51;18.65;69.22
77839;SHT31;67034;43.226;27.932;2023-06-14T01:57:18;18.61;69.38
77839;SHT31;67034;43.226;27.932;2023-06-14T01:59:44;18.57;69.50
77839;SHT31;67034;43.226;27.932;2023-06-14T02:02:13;18.56;69.57
77839;SHT31;67034;43.226;27.932;2023-06-14T02:04:39;18.67;69.37
77839;SHT31;67034;43.226;27.932;2023-06-14T02:07:05;18.60;69.33
77839;SHT31;67034;43.226;27.932;2023-06-14T02:09:31;18.57;69.59
77839;SHT31;67034;43.226;27.932;2023-06-14T02:11:56;18.47;69.78
77839;SHT31;67034;43.226;27.932;2023-06-14T02:14:24;18.37;70.04
77839;SHT31;67034;43.226;27.932;2023-06-14T02:16:49;18.47;69.99
77839;SHT31;67034;43.226;27.932;2023-06-14T02:19:15;18.43;69.69
77839;SHT31;67034;43.226;27.932;2023-06-14T02:21:41;18.30;70.29
77839;SHT31;67034;43.226;27.932;2023-06-14T02:24:07;18.37;70.32
77839;SHT31;67034;43.226;27.932;2023-06-14T02:26:33;18.46;70.06
77839;SHT31;67034;43.226;27.932;2023-06-14T02:28:58;18.48;69.82
77839;SHT31;67034;43.226;27.932;2023-06-14T02:31:26;18.43;69.81
77839;SHT31;67034;43.226;27.932;2023-06-14T02:33:52;18.29;70.20
77839;SHT31;67034;43.226;27.932;2023-06-14T02:36:18;18.26;70.32
77839;SHT31;67034;43.226;27.932;2023-06-14T02:38:44;18.43;70.22
77839;SHT31;67034;43.226;27.932;2023-06-14T02:41:10;18.61;69.65
77839;SHT31;67034;43.226;27.932;2023-06-14T02:43:36;18.83;69.13
77839;SHT31;67034;43.226;27.932;2023-06-14T02:46:02;18.44;69.77
77839;SHT31;67034;43.226;27.932;2023-06-14T02:48:29;18.37;70.07
77839;SHT31;67034;43.226;27.932;2023-06-14T02:50:55;18.33;70.21
77839;SHT31;67034;43.226;27.932;2023-06-14T02:53:22;18.32;70.42
77839;SHT31;67034;43.226;27.932;2023-06-14T02:55:48;18.57;69.74
77839;SHT31;67034;43.226;27.932;2023-06-14T02:58:14;18.53;69.77
77839;SHT31;67034;43.226;27.932;2023-06-14T03:00:41;18.37;70.05
77839;SHT31;67034;43.226;27.932;2023-06-14T03:03:07;18.41;70.10
77839;SHT31;67034;43.226;27.932;2023-06-14T03:05:44;18.46;70.12
77839;SHT31;67034;43.226;27.932;2023-06-14T03:08:14;18.67;69.42
77839;SHT31;67034;43.226;27.932;2023-06-14T03:10:42;18.46;69.78
77839;SHT31;67034;43.226;27.932;2023-06-14T03:13:08;18.40;70.08
77839;SHT31;67034;43.226;27.932;2023-06-14T03:15:34;18.25;70.53
77839;SHT31;67034;43.226;27.932;2023-06-14T03:18:00;18.29;70.72
77839;SHT31;67034;43.226;27.932;2023-06-14T03:20:26;18.56;69.92
77839;SHT31;67034;43.226;27.932;2023-06-14T03:22:56;18.34;70.14
77839;SHT31;67034;43.226;27.932;2023-06-14T03:25:21;18.22;70.58
77839;SHT31;67034;43.226;27.932;2023-06-14T03:27:47;18.17;70.82
77839;SHT31;67034;43.226;27.932;2023-06-14T03:30:13;18.25;70.86
77839;SHT31;67034;43.226;27.932;2023-06-14T03:32:39;18.44;70.42
77839;SHT31;67034;43.226;27.932;2023-06-14T03:35:06;18.43;70.20
77839;SHT31;67034;43.226;27.932;2023-06-14T03:37:31;18.54;70.05
77839;SHT31;67034;43.226;27.932;2023-06-14T03:39:58;18.68;69.80
77839;SHT31;67034;43.226;27.932;2023-06-14T03:42:24;18.87;69.34
77839;SHT31;67034;43.226;27.932;2023-06-14T03:44:50;19.06;68.95
77839;SHT31;67034;43.226;27.932;2023-06-14T03:47:16;19.16;68.18
77839;SHT31;67034;43.226;27.932;2023-06-14T03:49:42;18.99;68.78
77839;SHT31;67034;43.226;27.932;2023-06-14T03:52:08;18.88;69.17
77839;SHT31;67034;43.226;27.932;2023-06-14T03:54:33;18.78;69.36
77839;SHT31;67034;43.226;27.932;2023-06-14T03:57:01;18.88;69.34
77839;SHT31;67034;43.226;27.932;2023-06-14T03:59:26;19.02;68.88
77839;SHT31;67034;43.226;27.932;2023-06-14T04:01:53;18.91;69.13
77839;SHT31;67034;43.226;27.932;2023-06-14T04:04:19;18.87;69.15
77839;SHT31;67034;43.226;27.932;2023-06-14T04:06:46;18.85;69.28
77839;SHT31;67034;43.226;27.932;2023-06-14T04:09:13;18.99;69.19
77839;SHT31;67034;43.226;27.932;2023-06-14T04:11:39;19.08;68.69
77839;SHT31;67034;43.226;27.932;2023-06-14T04:14:06;19.09;68.58
77839;SHT31;67034;43.226;27.932;2023-06-14T04:16:32;19.01;68.95
77839;SHT31;67034;43.226;27.932;2023-06-14T04:18:58;19.04;68.95
77839;SHT31;67034;43.226;27.932;2023-06-14T04:21:23;19.01;69.15
77839;SHT31;67034;43.226;27.932;2023-06-14T04:23:49;19.27;68.65
77839;SHT31;67034;43.226;27.932;2023-06-14T04:26:18;19.39;68.37
77839;SHT31;67034;43.226;27.932;2023-06-14T04:28:45;19.46;68.38
77839;SHT31;67034;43.226;27.932;2023-06-14T04:31:13;19.59;68.00
77839;SHT31;67034;43.226;27.932;2023-06-14T04:33:39;19.66;68.02
77839;SHT31;67034;43.226;27.932;2023-06-14T04:36:08;19.90;67.40
77839;SHT31;67034;43.226;27.932;2023-06-14T04:38:34;19.90;67.33
77839;SHT31;67034;43.226;27.932;2023-06-14T04:41:00;19.98;67.10
77839;SHT31;67034;43.226;27.932;2023-06-14T04:43:27;20.07;67.05
77839;SHT31;67034;43.226;27.932;2023-06-14T04:45:53;20.07;67.03
77839;SHT31;67034;43.226;27.932;2023-06-14T04:48:22;20.21;66.70
77839;SHT31;67034;43.226;27.932;2023-06-14T04:50:48;20.11;66.64
77839;SHT31;67034;43.226;27.932;2023-06-14T04:53:18;20.18;66.68
77839;SHT31;67034;43.226;27.932;2023-06-14T04:55:47;20.26;66.42
77839;SHT31;67034;43.226;27.932;2023-06-14T04:58:14;20.28;66.57
77839;SHT31;67034;43.226;27.932;2023-06-14T05:00:39;20.38;66.37
77839;SHT31;67034;43.226;27.932;2023-06-14T05:03:07;20.39;66.52
77839;SHT31;67034;43.226;27.932;2023-06-14T05:05:35;20.39;66.55
77839;SHT31;67034;43.226;27.932;2023-06-14T05:08:00;20.55;66.21
77839;SHT31;67034;43.226;27.932;2023-06-14T05:10:26;20.49;66.17
77839;SHT31;67034;43.226;27.932;2023-06-14T05:12:52;20.53;66.31
77839;SHT31;67034;43.226;27.932;2023-06-14T05:15:18;20.66;65.83
77839;SHT31;67034;43.226;27.932;2023-06-14T05:17:45;20.55;66.31
77839;SHT31;67034;43.226;27.932;2023-06-14T05:20:13;20.55;66.50
77839;SHT31;67034;43.226;27.932;2023-06-14T05:22:40;20.65;66.31
77839;SHT31;67034;43.226;27.932;2023-06-14T05:25:06;20.80;66.04
77839;SHT31;67034;43.226;27.932;2023-06-14T05:27:32;20.83;65.90
77839;SHT31;67034;43.226;27.932;2023-06-14T05:30:01;20.69;66.41
77839;SHT31;67034;43.226;27.932;2023-06-14T05:32:26;20.66;66.57
77839;SHT31;67034;43.226;27.932;2023-06-14T05:34:52;20.73;66.61
77839;SHT31;67034;43.226;27.932;2023-06-14T05:37:18;20.96;66.29
77839;SHT31;67034;43.226;27.932;2023-06-14T05:39:45;21.11;65.64
77839;SHT31;67034;43.226;27.932;2023-06-14T05:42:11;21.15;65.84
77839;SHT31;67034;43.226;27.932;2023-06-14T05:44:37;21.11;65.87
77839;SHT31;67034;43.226;27.932;2023-06-14T05:47:03;21.14;65.98
77839;SHT31;67034;43.226;27.932;2023-06-14T05:49:28;21.30;66.03
77839;SHT31;67034;43.226;27.932;2023-06-14T05:51:54;21.38;65.69
77839;SHT31;67034;43.226;27.932;2023-06-14T05:54:20;21.31;65.66
77839;SHT31;67034;43.226;27.932;2023-06-14T05:56:47;21.32;65.74
77839;SHT31;67034;43.226;27.932;2023-06-14T05:59:13;21.41;65.03
77839;SHT31;67034;43.226;27.932;2023-06-14T06:01:38;21.65;64.73
77839;SHT31;67034;43.226;27.932;2023-06-14T06:04:05;22.06;63.86
77839;SHT31;67034;43.226;27.932;2023-06-14T06:06:31;22.07;63.39
77839;SHT31;67034;43.226;27.932;2023-06-14T06:08:58;22.02;63.15
77839;SHT31;67034;43.226;27.932;2023-06-14T06:11:24;22.03;62.89
77839;SHT31;67034;43.226;27.932;2023-06-14T06:13:51;22.12;63.32
77839;SHT31;67034;43.226;27.932;2023-06-14T06:16:16;22.30;62.54
77839;SHT31;67034;43.226;27.932;2023-06-14T06:18:42;22.27;62.68
77839;SHT31;67034;43.226;27.932;2023-06-14T06:21:08;22.16;62.53
77839;SHT31;67034;43.226;27.932;2023-06-14T06:23:34;22.14;62.36
77839;SHT31;67034;43.226;27.932;2023-06-14T06:25:59;22.10;61.77
77839;SHT31;67034;43.226;27.932;2023-06-14T06:28:25;22.07;60.60
77839;SHT31;67034;43.226;27.932;2023-06-14T06:30:52;21.90;60.54
77839;SHT31;67034;43.226;27.932;2023-06-14T06:33:19;21.83;60.88
77839;SHT31;67034;43.226;27.932;2023-06-14T06:35:45;21.83;60.21
77839;SHT31;67034;43.226;27.932;2023-06-14T06:38:11;21.89;60.26
77839;SHT31;67034;43.226;27.932;2023-06-14T06:40:36;22.23;59.97
77839;SHT31;67034;43.226;27.932;2023-06-14T06:43:02;22.41;58.83
77839;SHT31;67034;43.226;27.932;2023-06-14T06:45:28;22.53;58.03
77839;SHT31;67034;43.226;27.932;2023-06-14T06:47:56;22.63;57.96
77839;SHT31;67034;43.226;27.932;2023-06-14T06:50:21;22.69;57.13
77839;SHT31;67034;43.226;27.932;2023-06-14T06:52:50;22.74;56.56
77839;SHT31;67034;43.226;27.932;2023-06-14T06:55:16;22.96;56.89
77839;SHT31;67034;43.226;27.932;2023-06-14T06:57:44;23.11;55.79
77839;SHT31;67034;43.226;27.932;2023-06-14T07:00:10;23.30;55.48
77839;SHT31;67034;43.226;27.932;2023-06-14T07:02:38;23.29;55.77
77839;SHT31;67034;43.226;27.932;2023-06-14T07:05:05;23.29;55.18
77839;SHT31;67034;43.226;27.932;2023-06-14T07:07:31;23.29;55.30
77839;SHT31;67034;43.226;27.932;2023-06-14T07:09:57;23.42;55.28
77839;SHT31;67034;43.226;27.932;2023-06-14T07:12:23;23.56;54.64
77839;SHT31;67034;43.226;27.932;2023-06-14T07:14:49;23.57;54.19
77839;SHT31;67034;43.226;27.932;2023-06-14T07:17:14;23.52;54.44
77839;SHT31;67034;43.226;27.932;2023-06-14T07:19:40;23.74;54.24
77839;SHT31;67034;43.226;27.932;2023-06-14T07:22:07;23.69;53.27
77839;SHT31;67034;43.226;27.932;2023-06-14T07:24:33;23.66;53.95
77839;SHT31;67034;43.226;27.932;2023-06-14T07:27:01;23.81;54.08
77839;SHT31;67034;43.226;27.932;2023-06-14T07:29:28;23.98;53.61
77839;SHT31;67034;43.226;27.932;2023-06-14T07:31:54;24.22;53.21
77839;SHT31;67034;43.226;27.932;2023-06-14T07:34:20;24.22;52.83
77839;SHT31;67034;43.226;27.932;2023-06-14T07:36:46;24.38;52.85
77839;SHT31;67034;43.226;27.932;2023-06-14T07:39:14;24.43;52.50
77839;SHT31;67034;43.226;27.932;2023-06-14T07:41:40;24.60;52.02
77839;SHT31;67034;43.226;27.932;2023-06-14T07:44:06;24.84;52.09
77839;SHT31;67034;43.226;27.932;2023-06-14T07:46:32;25.11;51.08
77839;SHT31;67034;43.226;27.932;2023-06-14T07:48:57;25.21;50.61
77839;SHT31;67034;43.226;27.932;2023-06-14T07:51:23;25.28;50.93
77839;SHT31;67034;43.226;27.932;2023-06-14T07:53:49;25.34;50.37
77839;SHT31;67034;43.226;27.932;2023-06-14T07:56:16;25.37;50.21
77839;SHT31;67034;43.226;27.932;2023-06-14T07:58:42;25.41;49.77
77839;SHT31;67034;43.226;27.932;2023-06-14T08:01:08;25.54;49.25
77839;SHT31;67034;43.226;27.932;2023-06-14T08:03:34;25.52;49.66
77839;SHT31;67034;43.226;27.932;2023-06-14T08:06:00;25.45;50.11
77839;SHT31;67034;43.226;27.932;2023-06-14T08:08:26;25.35;50.44
77839;SHT31;67034;43.226;27.932;2023-06-14T08:10:52;25.09;50.50
77839;SHT31;67034;43.226;27.932;2023-06-14T08:13:19;24.84;50.89
77839;SHT31;67034;43.226;27.932;2023-06-14T08:15:46;24.70;50.98
77839;SHT31;67034;43.226;27.932;2023-06-14T08:18:12;24.73;51.38
77839;SHT31;67034;43.226;27.932;2023-06-14T08:20:38;24.87;51.08
77839;SHT31;67034;43.226;27.932;2023-06-14T08:23:03;25.16;50.84
77839;SHT31;67034;43.226;27.932;2023-06-14T08:25:29;25.45;49.46
77839;SHT31;67034;43.226;27.932;2023-06-14T08:27:55;25.85;48.93
77839;SHT31;67034;43.226;27.932;2023-06-14T08:30:22;25.67;48.50
77839;SHT31;67034;43.226;27.932;2023-06-14T08:32:48;25.85;49.20
77839;SHT31;67034;43.226;27.932;2023-06-14T08:35:15;26.00;48.92
77839;SHT31;67034;43.226;27.932;2023-06-14T08:37:41;25.82;48.83
77839;SHT31;67034;43.226;27.932;2023-06-14T08:40:18;25.64;48.66
77839;SHT31;67034;43.226;27.932;2023-06-14T08:42:45;25.78;48.50
77839;SHT31;67034;43.226;27.932;2023-06-14T08:45:11;26.53;47.39
77839;SHT31;67034;43.226;27.932;2023-06-14T08:47:38;27.16;45.84
77839;SHT31;67034;43.226;27.932;2023-06-14T08:50:06;27.38;45.47
77839;SHT31;67034;43.226;27.932;2023-06-14T08:52:38;27.77;45.08
77839;SHT31;67034;43.226;27.932;2023-06-14T08:55:11;27.91;44.90
77839;SHT31;67034;43.226;27.932;2023-06-14T08:57:38;28.10;44.38
77839;SHT31;67034;43.226;27.932;2023-06-14T09:00:06;28.11;44.02
77839;SHT31;67034;43.226;27.932;2023-06-14T09:02:40;28.21;44.17
77839;SHT31;67034;43.226;27.932;2023-06-14T09:05:11;28.31;43.84
77839;SHT31;67034;43.226;27.932;2023-06-14T09:07:43;28.41;43.48
77839;SHT31;67034;43.226;27.932;2023-06-14T09:10:11;28.35;43.57
77839;SHT31;67034;43.226;27.932;2023-06-14T09:12:37;28.14;43.20
77839;SHT31;67034;43.226;27.932;2023-06-14T09:15:05;28.18;43.26
77839;SHT31;67034;43.226;27.932;2023-06-14T09:17:34;28.22;42.66
77839;SHT31;67034;43.226;27.932;2023-06-14T09:20:02;28.21;43.22
77839;SHT31;67034;43.226;27.932;2023-06-14T09:22:31;28.24;43.48
77839;SHT31;67034;43.226;27.932;2023-06-14T09:24:57;28.52;43.88
77839;SHT31;67034;43.226;27.932;2023-06-14T09:27:22;28.58;43.01
77839;SHT31;67034;43.226;27.932;2023-06-14T09:29:48;28.15;44.99
77839;SHT31;67034;43.226;27.932;2023-06-14T09:32:14;27.94;46.25
77839;SHT31;67034;43.226;27.932;2023-06-14T09:34:40;27.74;47.56
77839;SHT31;67034;43.226;27.932;2023-06-14T09:37:08;27.35;48.28
77839;SHT31;67034;43.226;27.932;2023-06-14T09:39:34;27.19;48.84
77839;SHT31;67034;43.226;27.932;2023-06-14T09:41:59;26.98;49.19
77839;SHT31;67034;43.226;27.932;2023-06-14T09:44:25;26.71;49.68
77839;SHT31;67034;43.226;27.932;2023-06-14T09:46:55;26.41;50.10
77839;SHT31;67034;43.226;27.932;2023-06-14T09:49:21;26.32;51.05
77839;SHT31;67034;43.226;27.932;2023-06-14T09:51:50;26.34;51.45
77839;SHT31;67034;43.226;27.932;2023-06-14T09:54:22;26.43;51.41
77839;SHT31;67034;43.226;27.932;2023-06-14T09:56:51;26.60;51.02
77839;SHT31;67034;43.226;27.932;2023-06-14T09:59:20;26.84;49.90
77839;SHT31;67034;43.226;27.932;2023-06-14T10:01:47;26.94;50.09
77839;SHT31;67034;43.226;27.932;2023-06-14T10:04:15;26.75;50.61
77839;SHT31;67034;43.226;27.932;2023-06-14T10:06:45;26.57;51.05
77839;SHT31;67034;43.226;27.932;2023-06-14T10:09:12;26.64;51.37
77839;SHT31;67034;43.226;27.932;2023-06-14T10:11:40;26.63;51.23
77839;SHT31;67034;43.226;27.932;2023-06-14T10:14:09;26.39;51.93
77839;SHT31;67034;43.226;27.932;2023-06-14T10:16:41;26.50;51.89
77839;SHT31;67034;43.226;27.932;2023-06-14T10:19:21;26.81;51.19
77839;SHT31;67034;43.226;27.932;2023-06-14T10:21:57;27.01;50.04
77839;SHT31;67034;43.226;27.932;2023-06-14T10:24:29;27.13;49.89
77839;SHT31;67034;43.226;27.932;2023-06-14T10:26:58;27.05;50.18
77839;SHT31;67034;43.226;27.932;2023-06-14T10:29:27;27.08;50.42
77839;SHT31;67034;43.226;27.932;2023-06-14T10:32:02;27.16;50.33
77839;SHT31;67034;43.226;27.932;2023-06-14T10:34:29;27.19;50.70
77839;SHT31;67034;43.226;27.932;2023-06-14T10:37:03;27.01;50.95
77839;SHT31;67034;43.226;27.932;2023-06-14T10:39:29;26.51;51.97
77839;SHT31;67034;43.226;27.932;2023-06-14T10:41:57;26.09;52.82
77839;SHT31;67034;43.226;27.932;2023-06-14T10:44:49;25.93;52.75
77839;SHT31;67034;43.226;27.932;2023-06-14T10:47:24;25.81;52.92
77839;SHT31;67034;43.226;27.932;2023-06-14T10:49:52;25.79;53.07
77839;SHT31;67034;43.226;27.932;2023-06-14T10:52:22;25.85;53.12
77839;SHT31;67034;43.226;27.932;2023-06-14T10:55:05;25.88;53.19
77839;SHT31;67034;43.226;27.932;2023-06-14T10:57:41;25.93;52.63
77839;SHT31;67034;43.226;27.932;2023-06-14T11:00:08;25.95;52.60
77839;SHT31;67034;43.226;27.932;2023-06-14T11:03:26;25.97;52.75
77839;SHT31;67034;43.226;27.932;2023-06-14T11:05:56;25.93;52.94
77839;SHT31;67034;43.226;27.932;2023-06-14T11:08:59;25.96;53.19
77839;SHT31;67034;43.226;27.932;2023-06-14T11:11:32;26.13;52.89
77839;SHT31;67034;43.226;27.932;2023-06-14T11:14:02;26.12;52.62
77839;SHT31;67034;43.226;27.932;2023-06-14T11:16:28;26.15;52.67
77839;SHT31;67034;43.226;27.932;2023-06-14T11:18:54;26.32;53.14
77839;SHT31;67034;43.226;27.932;2023-06-14T11:21:20;26.50;52.73
77839;SHT31;67034;43.226;27.932;2023-06-14T11:23:50;26.75;53.42
77839;SHT31;67034;43.226;27.932;2023-06-14T11:26:16;27.01;52.52
77839;SHT31;67034;43.226;27.932;2023-06-14T11:28:55;26.87;51.62
77839;SHT31;67034;43.226;27.932;2023-06-14T11:31:22;26.67;51.94
77839;SHT31;67034;43.226;27.932;2023-06-14T11:33:49;26.33;52.62
77839;SHT31;67034;43.226;27.932;2023-06-14T11:36:15;26.27;52.98
77839;SHT31;67034;43.226;27.932;2023-06-14T11:38:41;26.10;52.90
77839;SHT31;67034;43.226;27.932;2023-06-14T11:41:07;26.06;53.33
77839;SHT31;67034;43.226;27.932;2023-06-14T11:43:32;26.16;53.21
77839;SHT31;67034;43.226;27.932;2023-06-14T11:46:00;26.26;52.93
77839;SHT31;67034;43.226;27.932;2023-06-14T11:48:37;26.29;52.91
77839;SHT31;67034;43.226;27.932;2023-06-14T11:51:03;26.33;53.05
77839;SHT31;67034;43.226;27.932;2023-06-14T11:53:29;26.16;53.28
77839;SHT31;67034;43.226;27.932;2023-06-14T11:55:55;26.09;53.73
77839;SHT31;67034;43.226;27.932;2023-06-14T11:58:20;25.97;54.22
77839;SHT31;67034;43.226;27.932;2023-06-14T12:00:48;25.90;54.65
77839;SHT31;67034;43.226;27.932;2023-06-14T12:03:14;25.96;54.80
77839;SHT31;67034;43.226;27.932;2023-06-14T12:05:42;25.90;55.38
77839;SHT31;67034;43.226;27.932;2023-06-14T12:08:09;26.06;55.64
77839;SHT31;67034;43.226;27.932;2023-06-14T12:10:41;26.17;55.79
77839;SHT31;67034;43.226;27.932;2023-06-14T12:13:10;26.34;56.49
77839;SHT31;67034;43.226;27.932;2023-06-14T12:15:37;26.53;56.67
77839;SHT31;67034;43.226;27.932;2023-06-14T12:18:05;26.22;59.92
77839;SHT31;67034;43.226;27.932;2023-06-14T12:20:32;25.89;61.31
77839;SHT31;67034;43.226;27.932;2023-06-14T12:22:59;25.72;62.32
77839;SHT31;67034;43.226;27.932;2023-06-14T12:25:27;25.65;62.52
77839;SHT31;67034;43.226;27.932;2023-06-14T12:27:54;25.78;62.03
77839;SHT31;67034;43.226;27.932;2023-06-14T12:30:20;25.90;61.72
77839;SHT31;67034;43.226;27.932;2023-06-14T12:32:46;26.13;61.56
77839;SHT31;67034;43.226;27.932;2023-06-14T12:35:12;26.22;61.15
77839;SHT31;67034;43.226;27.932;2023-06-14T12:37:38;26.19;61.03
77839;SHT31;67034;43.226;27.932;2023-06-14T12:40:06;26.06;61.02
77839;SHT31;67034;43.226;27.932;2023-06-14T12:42:33;25.96;61.28
77839;SHT31;67034;43.226;27.932;2023-06-14T12:45:02;25.71;61.47
77839;SHT31;67034;43.226;27.932;2023-06-14T12:47:28;25.45;62.17
77839;SHT31;67034;43.226;27.932;2023-06-14T12:49:53;25.37;62.49
77839;SHT31;67034;43.226;27.932;2023-06-14T12:52:19;25.30;62.37
77839;SHT31;67034;43.226;27.932;2023-06-14T12:54:45;25.16;62.59
77839;SHT31;67034;43.226;27.932;2023-06-14T12:57:12;25.20;62.78
77839;SHT31;67034;43.226;27.932;2023-06-14T12:59:38;25.33;62.39
77839;SHT31;67034;43.226;27.932;2023-06-14T13:02:15;25.48;62.31
77839;SHT31;67034;43.226;27.932;2023-06-14T13:04:41;25.51;62.32
77839;SHT31;67034;43.226;27.932;2023-06-14T13:07:06;25.61;62.17
77839;SHT31;67034;43.226;27.932;2023-06-14T13:09:32;25.81;61.61
77839;SHT31;67034;43.226;27.932;2023-06-14T13:11:58;25.95;61.43
77839;SHT31;67034;43.226;27.932;2023-06-14T13:14:25;26.05;61.28
77839;SHT31;67034;43.226;27.932;2023-06-14T13:16:51;25.90;60.98
77839;SHT31;67034;43.226;27.932;2023-06-14T13:19:17;25.74;60.48
77839;SHT31;67034;43.226;27.932;2023-06-14T13:21:42;25.71;60.10
77839;SHT31;67034;43.226;27.932;2023-06-14T13:24:08;25.99;59.86
77839;SHT31;67034;43.226;27.932;2023-06-14T13:26:34;26.50;59.00
77839;SHT31;67034;43.226;27.932;2023-06-14T13:29:01;26.67;58.33
77839;SHT31;67034;43.226;27.932;2023-06-14T13:31:28;26.78;58.08
77839;SHT31;67034;43.226;27.932;2023-06-14T13:33:54;26.90;56.44
77839;SHT31;67034;43.226;27.932;2023-06-14T13:36:20;26.85;56.36
77839;SHT31;67034;43.226;27.932;2023-06-14T13:38:46;26.90;56.10
77839;SHT31;67034;43.226;27.932;2023-06-14T13:41:12;26.58;56.78
77839;SHT31;67034;43.226;27.932;2023-06-14T13:43:38;26.32;58.13
77839;SHT31;67034;43.226;27.932;2023-06-14T13:46:03;26.17;59.29
77839;SHT31;67034;43.226;27.932;2023-06-14T13:48:31;26.20;59.53
77839;SHT31;67034;43.226;27.932;2023-06-14T13:50:59;26.43;58.67
77839;SHT31;67034;43.226;27.932;2023-06-14T13:53:25;26.50;58.70
77839;SHT31;67034;43.226;27.932;2023-06-14T13:55:51;26.36;58.98
77839;SHT31;67034;43.226;27.932;2023-06-14T13:58:17;26.27;58.81
77839;SHT31;67034;43.226;27.932;2023-06-14T14:00:43;26.32;58.26
77839;SHT31;67034;43.226;27.932;2023-06-14T14:03:09;26.58;57.68
77839;SHT31;67034;43.226;27.932;2023-06-14T14:05:36;26.98;56.97
77839;SHT31;67034;43.226;27.932;2023-06-14T14:08:02;27.42;56.05
77839;SHT31;67034;43.226;27.932;2023-06-14T14:10:29;27.81;55.26
77839;SHT31;67034;43.226;27.932;2023-06-14T14:12:55;28.00;53.45
77839;SHT31;67034;43.226;27.932;2023-06-14T14:15:22;27.54;53.83
77839;SHT31;67034;43.226;27.932;2023-06-14T14:17:48;27.12;55.26
77839;SHT31;67034;43.226;27.932;2023-06-14T14:20:13;27.11;56.06
77839;SHT31;67034;43.226;27.932;2023-06-14T14:22:42;27.15;55.92
77839;SHT31;67034;43.226;27.932;2023-06-14T14:25:09;27.13;55.56
77839;SHT31;67034;43.226;27.932;2023-06-14T14:27:34;27.16;55.92
77839;SHT31;67034;43.226;27.932;2023-06-14T14:30:02;26.99;57.10
77839;SHT31;67034;43.226;27.932;2023-06-14T14:32:27;26.96;57.60
77839;SHT31;67034;43.226;27.932;2023-06-14T14:34:53;26.67;58.28
77839;SHT31;67034;43.226;27.932;2023-06-14T14:37:19;26.30;59.23
77839;SHT31;67034;43.226;27.932;2023-06-14T14:39:46;26.02;60.51
77839;SHT31;67034;43.226;27.932;2023-06-14T14:42:12;25.74;61.41
77839;SHT31;67034;43.226;27.932;2023-06-14T14:44:38;25.38;62.21
77839;SHT31;67034;43.226;27.932;2023-06-14T14:47:04;25.18;62.90
77839;SHT31;67034;43.226;27.932;2023-06-14T14:49:30;25.03;63.55
77839;SHT31;67034;43.226;27.932;2023-06-14T14:51:56;24.79;64.23
77839;SHT31;67034;43.226;27.932;2023-06-14T14:54:22;24.63;64.81
77839;SHT31;67034;43.226;27.932;2023-06-14T14:56:50;24.69;64.94
77839;SHT31;67034;43.226;27.932;2023-06-14T14:59:16;24.47;65.59
77839;SHT31;67034;43.226;27.932;2023-06-14T15:01:41;24.25;66.37
77839;SHT31;67034;43.226;27.932;2023-06-14T15:04:07;24.14;66.78
77839;SHT31;67034;43.226;27.932;2023-06-14T15:06:33;24.24;66.61
77839;SHT31;67034;43.226;27.932;2023-06-14T15:09:01;24.36;66.49
77839;SHT31;67034;43.226;27.932;2023-06-14T15:11:27;24.52;66.19
77839;SHT31;67034;43.226;27.932;2023-06-14T15:13:54;24.39;66.51
77839;SHT31;67034;43.226;27.932;2023-06-14T15:16:20;24.42;66.60